createdAt,value
2023-04-20T00:03:27.507Z,7.30
2023-04-20T00:08:29.636Z,7.28
2023-04-20T00:13:31.448Z,7.30
2023-04-20T00:18:33.381Z,7.28
2023-04-20T00:23:35.386Z,7.19
2023-04-20T00:28:37.271Z,7.19
2023-04-20T00:33:39.179Z,7.17
2023-04-20T00:38:42.705Z,7.12
2023-04-20T00:43:54.507Z,7.08
2023-04-20T00:48:56.748Z,7.02
2023-04-20T00:53:59.281Z,6.99
2023-04-20T00:59:02.544Z,6.93
2023-04-20T01:04:04.791Z,6.81
2023-04-20T01:09:06.975Z,6.74
2023-04-20T01:14:08.844Z,6.75
2023-04-20T01:19:10.748Z,6.70
2023-04-20T01:24:12.520Z,6.59
2023-04-20T01:29:14.555Z,6.46
2023-04-20T01:34:17.849Z,6.39
2023-04-20T01:39:20.549Z,6.34
2023-04-20T01:44:22.501Z,6.31
2023-04-20T01:49:24.447Z,6.27
2023-04-20T01:54:26.954Z,6.29
2023-04-20T01:59:29.923Z,6.28
2023-04-20T02:04:32.213Z,6.22
2023-04-20T02:09:34.082Z,6.20
2023-04-20T02:14:36.056Z,6.26
2023-04-20T02:19:37.951Z,6.27
2023-04-20T02:24:40.362Z,6.31
2023-04-20T02:29:42.245Z,6.31
2023-04-20T02:34:44.084Z,6.30
2023-04-20T02:39:46.252Z,6.18
2023-04-20T02:44:48.136Z,6.09
2023-04-20T02:49:51.508Z,6.08
2023-04-20T02:54:53.783Z,6.04
2023-04-20T02:59:55.937Z,5.99
2023-04-20T03:05:13.420Z,5.95
2023-04-20T03:10:18.788Z,5.88
2023-04-20T03:15:29.935Z,5.79
2023-04-20T03:20:43.017Z,5.73
2023-04-20T03:25:46.401Z,5.72
2023-04-20T03:31:11.267Z,5.71
2023-04-20T03:36:13.797Z,5.70
2023-04-20T03:41:16.005Z,5.68
2023-04-20T03:46:17.993Z,5.65
2023-04-20T03:51:19.955Z,5.65
2023-04-20T03:56:21.821Z,5.64
2023-04-20T04:01:25.875Z,5.72
2023-04-20T04:06:28.381Z,5.77
2023-04-20T04:11:30.654Z,5.76
2023-04-20T04:16:33.786Z,5.72
2023-04-20T04:21:36.035Z,5.64
2023-04-20T04:26:39.705Z,5.49
2023-04-20T04:31:42.458Z,5.33
2023-04-20T04:36:50.654Z,5.20
2023-04-20T04:41:58.607Z,5.16
2023-04-20T04:47:11.930Z,5.19
2023-04-20T04:52:14.226Z,5.20
2023-04-20T04:57:16.043Z,5.19
2023-04-20T05:02:18.261Z,5.20
2023-04-20T05:07:20.265Z,5.24
2023-04-20T05:12:22.343Z,5.30
2023-04-20T05:17:24.154Z,5.24
2023-04-20T05:22:26.067Z,5.10
2023-04-20T05:27:27.946Z,5.03
2023-04-20T05:32:30.170Z,5.11
2023-04-20T05:37:33.817Z,5.15
2023-04-20T05:42:35.873Z,5.11
2023-04-20T05:47:37.869Z,5.12
2023-04-20T05:52:39.742Z,5.16
2023-04-20T05:57:47.026Z,5.22
2023-04-20T06:02:48.992Z,5.42
2023-04-20T06:07:50.942Z,5.58
2023-04-20T06:12:52.945Z,5.73
2023-04-20T06:17:55.085Z,5.75
2023-04-20T06:22:57.205Z,5.69
2023-04-20T06:27:58.975Z,5.69
2023-04-20T06:33:01.893Z,5.74
2023-04-20T06:38:04.033Z,5.77
2023-04-20T06:43:05.866Z,5.75
2023-04-20T06:48:17.134Z,5.75
2023-04-20T06:53:29.919Z,5.83
2023-04-20T06:58:31.764Z,5.86
2023-04-20T07:03:34.105Z,5.87
2023-04-20T07:08:36.133Z,5.79
2023-04-20T07:13:38.039Z,5.72
2023-04-20T07:18:39.899Z,5.67
2023-04-20T07:23:44.263Z,5.59
2023-04-20T07:28:46.915Z,5.51
2023-04-20T07:33:48.893Z,5.47
2023-04-20T07:38:50.708Z,5.47
2023-04-20T07:43:52.603Z,5.57
2023-04-20T07:48:54.527Z,5.64
2023-04-20T07:53:57.345Z,5.64
2023-04-20T07:58:59.351Z,5.72
2023-04-20T08:04:01.546Z,5.83
2023-04-20T08:09:03.966Z,5.98
2023-04-20T08:14:05.773Z,6.09
2023-04-20T08:19:10.629Z,6.18
2023-04-20T08:24:13.659Z,6.23
2023-04-20T08:29:15.643Z,6.30
2023-04-20T08:34:17.692Z,6.36
2023-04-20T08:39:22.170Z,6.52
2023-04-20T08:44:25.014Z,6.67
2023-04-20T08:49:30.122Z,6.74
2023-04-20T08:54:32.634Z,6.64
2023-04-20T08:59:37.875Z,6.57
2023-04-20T09:04:41.051Z,6.49
2023-04-20T09:09:55.418Z,6.53
2023-04-20T09:14:57.433Z,6.61
2023-04-20T09:19:59.326Z,6.71
2023-04-20T09:25:13.194Z,6.77
2023-04-20T09:30:15.564Z,6.82
2023-04-20T09:35:24.226Z,6.90
2023-04-20T09:40:27.521Z,6.96
2023-04-20T09:45:30.958Z,7.01
2023-04-20T09:50:48.306Z,7.05
2023-04-20T09:55:52.092Z,7.04
2023-04-20T10:00:54.297Z,7.01
2023-04-20T10:05:56.241Z,7.01
2023-04-20T10:10:58.198Z,7.11
2023-04-20T10:16:00.809Z,7.20
2023-04-20T10:21:09.729Z,7.21
2023-04-20T10:26:11.726Z,7.23
2023-04-20T10:31:17.082Z,7.23
2023-04-20T10:36:31.374Z,7.24
2023-04-20T10:41:33.361Z,7.25
2023-04-20T10:46:35.399Z,7.31
2023-04-20T10:51:37.404Z,7.33
2023-04-20T10:56:42.552Z,7.34
2023-04-20T11:01:45.675Z,7.41
2023-04-20T11:06:48.565Z,7.43
2023-04-20T11:12:00.595Z,7.42
2023-04-20T11:17:02.579Z,7.35
2023-04-20T11:22:06.539Z,7.36
2023-04-20T11:27:08.531Z,7.40
2023-04-20T11:32:11.759Z,7.44
2023-04-20T11:37:13.901Z,7.52
2023-04-20T11:42:15.754Z,7.54
2023-04-20T11:47:17.755Z,7.60
2023-04-20T11:52:21.919Z,7.68
2023-04-20T11:57:25.732Z,7.68
2023-04-20T12:02:27.689Z,7.70
2023-04-20T12:07:29.654Z,7.76
2023-04-20T12:12:31.398Z,7.82
2023-04-20T12:17:33.221Z,7.88
2023-04-20T12:22:35.450Z,7.92
2023-04-20T12:27:37.671Z,7.94
2023-04-20T12:32:40.546Z,7.97
2023-04-20T12:37:42.437Z,8.04
2023-04-20T12:42:44.321Z,8.14
2023-04-20T12:47:46.382Z,8.19
2023-04-20T12:52:48.332Z,8.27
2023-04-20T12:57:50.424Z,8.37
2023-04-20T13:02:52.525Z,8.44
2023-04-20T13:07:54.660Z,8.55
2023-04-20T13:12:58.148Z,8.64
2023-04-20T13:18:00.213Z,8.73
2023-04-20T13:23:03.182Z,8.79
2023-04-20T13:28:06.022Z,8.84
2023-04-20T13:33:08.073Z,8.89
2023-04-20T13:38:12.051Z,8.92
2023-04-20T13:43:14.387Z,9.09
2023-04-20T13:48:16.272Z,9.29
2023-04-20T13:53:18.195Z,9.42
2023-04-20T13:58:20.527Z,9.55
2023-04-20T14:03:26.329Z,9.78
2023-04-20T14:08:28.384Z,9.96
2023-04-20T14:13:30.552Z,10.14
2023-04-20T14:18:32.474Z,10.23
2023-04-20T14:23:34.391Z,10.24
2023-04-20T14:28:36.712Z,10.25
2023-04-20T14:33:38.815Z,10.13
2023-04-20T14:38:40.858Z,10.11
2023-04-20T14:43:43.246Z,10.18
2023-04-20T14:48:46.388Z,10.24
2023-04-20T14:53:48.372Z,10.23
2023-04-20T14:58:50.397Z,10.19
2023-04-20T15:03:53.609Z,10.15
2023-04-20T15:08:56.623Z,10.17
2023-04-20T15:13:58.518Z,10.19
2023-04-20T15:19:00.318Z,10.21
2023-04-20T15:24:02.155Z,10.33
2023-04-20T15:29:04.029Z,10.46
2023-04-20T15:34:05.989Z,10.52
2023-04-20T15:39:07.827Z,10.57
2023-04-20T15:44:09.686Z,10.66
2023-04-20T15:49:11.458Z,10.75
2023-04-20T15:54:13.615Z,10.80
2023-04-20T15:59:16.043Z,10.84
2023-04-20T16:04:18.289Z,10.81
2023-04-20T16:09:22.341Z,10.76
2023-04-20T16:14:25.969Z,10.73
2023-04-20T16:19:28.825Z,10.68
2023-04-20T16:24:30.983Z,10.61
2023-04-20T16:29:34.121Z,10.56
2023-04-20T16:34:36.026Z,10.53
2023-04-20T16:39:38.204Z,10.48
2023-04-20T16:44:41.659Z,10.43
2023-04-20T16:49:44.449Z,10.38
2023-04-20T16:54:46.426Z,10.38
2023-04-20T16:59:49.022Z,10.36
2023-04-20T17:04:51.068Z,10.31
2023-04-20T17:09:54.255Z,10.28
2023-04-20T17:14:56.172Z,10.21
2023-04-20T17:19:58.046Z,10.15
2023-04-20T17:25:01.138Z,10.07
2023-04-20T17:30:03.500Z,10.01
2023-04-20T17:35:06.403Z,9.95
2023-04-20T17:40:09.327Z,9.88
2023-04-20T17:45:11.815Z,9.83
2023-04-20T17:50:13.907Z,9.79
2023-04-20T17:55:15.665Z,9.74
2023-04-20T18:00:18.734Z,9.71
2023-04-20T18:05:20.729Z,9.68
2023-04-20T18:10:26.195Z,9.67
2023-04-20T18:15:28.520Z,9.65
2023-04-20T18:20:32.357Z,9.61
2023-04-20T18:25:35.601Z,9.57
2023-04-20T18:30:37.372Z,9.55
2023-04-20T18:35:39.458Z,9.51
2023-04-20T18:40:41.666Z,9.45
2023-04-20T18:45:43.608Z,9.38
2023-04-20T18:50:48.665Z,9.34
2023-04-20T18:55:52.147Z,9.30
2023-04-20T19:00:54.133Z,9.29
2023-04-20T19:05:56.096Z,9.27
2023-04-20T19:10:59.123Z,9.25
2023-04-20T19:16:01.052Z,9.26
2023-04-20T19:21:03.227Z,9.26
2023-04-20T19:26:05.140Z,9.24
2023-04-20T19:31:09.640Z,9.23
2023-04-20T19:36:12.629Z,9.24
2023-04-20T19:41:14.463Z,9.25
2023-04-20T19:46:17.121Z,9.26
2023-04-20T19:51:19.965Z,9.25
2023-04-20T19:56:21.937Z,9.24
2023-04-20T20:01:23.832Z,9.25
2023-04-20T20:06:27.053Z,9.25
2023-04-20T20:11:28.969Z,9.26
2023-04-20T20:16:31.125Z,9.28
2023-04-20T20:21:33.234Z,9.30
2023-04-20T20:26:35.125Z,9.30
2023-04-20T20:31:37.171Z,9.30
2023-04-20T20:36:42.560Z,9.28
2023-04-20T20:41:46.743Z,9.27
2023-04-20T20:46:48.808Z,9.28
2023-04-20T20:51:50.775Z,9.25
2023-04-20T20:56:52.720Z,9.23
2023-04-20T21:01:54.508Z,9.19
2023-04-20T21:06:56.562Z,9.13
2023-04-20T21:12:01.282Z,9.07
2023-04-20T21:17:04.614Z,9.03
2023-04-20T21:22:06.756Z,8.98
2023-04-20T21:27:08.598Z,8.93
2023-04-20T21:32:10.461Z,8.89
2023-04-20T21:37:12.848Z,8.85
2023-04-20T21:42:14.702Z,8.80
2023-04-20T21:47:16.491Z,8.73
2023-04-20T21:52:18.584Z,8.66
2023-04-20T21:57:20.509Z,8.59
2023-04-20T22:02:22.469Z,8.53
2023-04-20T22:07:24.423Z,8.47
2023-04-20T22:12:38.398Z,8.41
2023-04-20T22:17:41.631Z,8.37
2023-04-20T22:22:56.239Z,8.33
2023-04-20T22:27:58.130Z,8.28
2023-04-20T22:33:00.040Z,8.25
2023-04-20T22:38:01.952Z,8.22
2023-04-20T22:43:03.855Z,8.19
2023-04-20T22:48:06.922Z,8.15
2023-04-20T22:53:08.756Z,8.11
2023-04-20T22:58:10.644Z,8.08
2023-04-20T23:03:12.630Z,8.05
2023-04-20T23:08:14.773Z,8.02
2023-04-20T23:13:26.410Z,8.01
2023-04-20T23:18:31.294Z,7.98
2023-04-20T23:23:33.153Z,7.95
2023-04-20T23:28:34.960Z,7.93
2023-04-20T23:33:46.854Z,7.89
2023-04-20T23:38:48.579Z,7.87
2023-04-20T23:43:52.472Z,7.86
2023-04-20T23:48:55.608Z,7.85
2023-04-20T23:53:57.376Z,7.84
2023-04-20T23:58:59.399Z,7.80
